sensor_id;sensor_type;location;lat;lon;timestamp;temperature;humidity
71047;SHT31;58703;48.978;8.982;2023-09-30T00:00:56;14.98;93.04
71047;SHT31;58703;48.978;8.982;2023-09-30T00:03:22;14.91;93.49
71047;SHT31;58703;48.978;8.982;2023-09-30T00:05:48;14.88;93.18
71047;SHT31;58703;48.978;8.982;2023-09-30T00:08:13;14.73;94.12
71047;SHT31;58703;48.978;8.982;2023-09-30T00:10:39;14.70;93.97
71047;SHT31;58703;48.978;8.982;2023-09-30T00:13:04;14.64;94.37
71047;SHT31;58703;48.978;8.982;2023-09-30T00:15:33;14.47;95.15
71047;SHT31;58703;48.978;8.982;2023-09-30T00:17:59;14.39;95.56
71047;SHT31;58703;48.978;8.982;2023-09-30T00:20:24;14.43;96.13
71047;SHT31;58703;48.978;8.982;2023-09-30T00:22:50;14.42;95.17
71047;SHT31;58703;48.978;8.982;2023-09-30T00:25:15;14.40;95.46
71047;SHT31;58703;48.978;8.982;2023-09-30T00:27:41;14.40;95.76
71047;SHT31;58703;48.978;8.982;2023-09-30T00:30:07;14.33;95.88
71047;SHT31;58703;48.978;8.982;2023-09-30T00:32:33;14.37;96.23
71047;SHT31;58703;48.978;8.982;2023-09-30T00:35:01;14.42;95.95
71047;SHT31;58703;48.978;8.982;2023-09-30T00:37:26;14.34;96.10
71047;SHT31;58703;48.978;8.982;2023-09-30T00:39:53;14.32;96.07
71047;SHT31;58703;48.978;8.982;2023-09-30T00:42:19;14.29;96.61
71047;SHT31;58703;48.978;8.982;2023-09-30T00:44:46;14.33;96.55
71047;SHT31;58703;48.978;8.982;2023-09-30T00:47:13;14.28;96.36
71047;SHT31;58703;48.978;8.982;2023-09-30T00:49:40;14.25;96.52
71047;SHT31;58703;48.978;8.982;2023-09-30T00:52:07;14.30;95.97
71047;SHT31;58703;48.978;8.982;2023-09-30T00:54:33;14.16;95.11
71047;SHT31;58703;48.978;8.982;2023-09-30T00:57:00;13.98;96.24
71047;SHT31;58703;48.978;8.982;2023-09-30T00:59:29;13.95;96.51
71047;SHT31;58703;48.978;8.982;2023-09-30T01:01:56;13.95;97.17
71047;SHT31;58703;48.978;8.982;2023-09-30T01:04:23;14.06;96.78
71047;SHT31;58703;48.978;8.982;2023-09-30T01:06:49;14.11;96.59
71047;SHT31;58703;48.978;8.982;2023-09-30T01:09:14;14.09;96.85
71047;SHT31;58703;48.978;8.982;2023-09-30T01:11:40;14.15;97.10
71047;SHT31;58703;48.978;8.982;2023-09-30T01:14:31;14.34;96.46
71047;SHT31;58703;48.978;8.982;2023-09-30T01:16:57;14.46;96.17
71047;SHT31;58703;48.978;8.982;2023-09-30T01:19:25;14.53;95.79
71047;SHT31;58703;48.978;8.982;2023-09-30T01:21:54;14.59;95.72
71047;SHT31;58703;48.978;8.982;2023-09-30T01:24:22;14.64;95.60
71047;SHT31;58703;48.978;8.982;2023-09-30T01:26:47;14.69;95.52
71047;SHT31;58703;48.978;8.982;2023-09-30T01:29:14;14.67;95.56
71047;SHT31;58703;48.978;8.982;2023-09-30T01:31:39;14.76;95.31
71047;SHT31;58703;48.978;8.982;2023-09-30T01:34:05;14.79;95.13
71047;SHT31;58703;48.978;8.982;2023-09-30T01:36:31;14.81;95.04
71047;SHT31;58703;48.978;8.982;2023-09-30T01:38:57;14.83;95.08
71047;SHT31;58703;48.978;8.982;2023-09-30T01:41:23;14.83;94.97
71047;SHT31;58703;48.978;8.982;2023-09-30T01:43:49;14.77;94.97
71047;SHT31;58703;48.978;8.982;2023-09-30T01:46:15;14.72;95.10
71047;SHT31;58703;48.978;8.982;2023-09-30T01:48:40;14.66;95.08
71047;SHT31;58703;48.978;8.982;2023-09-30T01:51:06;14.57;95.46
71047;SHT31;58703;48.978;8.982;2023-09-30T01:53:32;14.42;95.98
71047;SHT31;58703;48.978;8.982;2023-09-30T01:55:58;14.30;96.56
71047;SHT31;58703;48.978;8.982;2023-09-30T01:58:24;14.16;97.03
71047;SHT31;58703;48.978;8.982;2023-09-30T02:00:51;14.04;97.44
71047;SHT31;58703;48.978;8.982;2023-09-30T02:03:17;13.98;97.71
71047;SHT31;58703;48.978;8.982;2023-09-30T02:05:43;13.92;97.71
71047;SHT31;58703;48.978;8.982;2023-09-30T02:08:08;13.88;97.46
71047;SHT31;58703;48.978;8.982;2023-09-30T02:10:34;13.81;97.06
71047;SHT31;58703;48.978;8.982;2023-09-30T02:13:00;13.79;97.60
71047;SHT31;58703;48.978;8.982;2023-09-30T02:15:26;13.67;97.55
71047;SHT31;58703;48.978;8.982;2023-09-30T02:17:51;13.53;97.80
71047;SHT31;58703;48.978;8.982;2023-09-30T02:20:17;13.54;99.17
71047;SHT31;58703;48.978;8.982;2023-09-30T02:22:47;13.46;99.16
71047;SHT31;58703;48.978;8.982;2023-09-30T02:25:14;13.43;99.72
71047;SHT31;58703;48.978;8.982;2023-09-30T02:27:40;13.36;99.94
71047;SHT31;58703;48.978;8.982;2023-09-30T02:30:07;13.30;99.75
71047;SHT31;58703;48.978;8.982;2023-09-30T02:32:33;13.28;99.85
71047;SHT31;58703;48.978;8.982;2023-09-30T02:34:59;13.24;99.91
71047;SHT31;58703;48.978;8.982;2023-09-30T02:37:24;13.21;99.99
71047;SHT31;58703;48.978;8.982;2023-09-30T02:39:51;13.27;99.99
71047;SHT31;58703;48.978;8.982;2023-09-30T02:42:16;13.38;99.86
71047;SHT31;58703;48.978;8.982;2023-09-30T02:44:42;13.40;99.47
71047;SHT31;58703;48.978;8.982;2023-09-30T02:47:08;13.41;99.68
71047;SHT31;58703;48.978;8.982;2023-09-30T02:49:34;13.41;99.62
71047;SHT31;58703;48.978;8.982;2023-09-30T02:51:59;13.41;99.66
71047;SHT31;58703;48.978;8.982;2023-09-30T02:54:25;13.43;99.61
71047;SHT31;58703;48.978;8.982;2023-09-30T02:56:51;13.46;99.58
71047;SHT31;58703;48.978;8.982;2023-09-30T02:59:17;13.48;99.41
71047;SHT31;58703;48.978;8.982;2023-09-30T03:01:44;13.55;99.23
71047;SHT31;58703;48.978;8.982;2023-09-30T03:04:10;13.57;99.05
71047;SHT31;58703;48.978;8.982;2023-09-30T03:06:38;13.62;99.09
71047;SHT31;58703;48.978;8.982;2023-09-30T03:09:04;13.64;98.92
71047;SHT31;58703;48.978;8.982;2023-09-30T03:11:31;13.65;98.95
71047;SHT31;58703;48.978;8.982;2023-09-30T03:13:57;13.71;98.79
71047;SHT31;58703;48.978;8.982;2023-09-30T03:16:23;13.75;98.66
71047;SHT31;58703;48.978;8.982;2023-09-30T03:18:50;13.85;98.36
71047;SHT31;58703;48.978;8.982;2023-09-30T03:21:15;13.89;98.29
71047;SHT31;58703;48.978;8.982;2023-09-30T03:23:43;13.88;98.19
71047;SHT31;58703;48.978;8.982;2023-09-30T03:26:09;13.88;98.12
71047;SHT31;58703;48.978;8.982;2023-09-30T03:28:36;13.95;98.13
71047;SHT31;58703;48.978;8.982;2023-09-30T03:31:03;13.94;97.93
71047;SHT31;58703;48.978;8.982;2023-09-30T03:33:32;13.98;98.03
71047;SHT31;58703;48.978;8.982;2023-09-30T03:35:58;14.01;97.85
71047;SHT31;58703;48.978;8.982;2023-09-30T03:38:25;13.99;97.84
71047;SHT31;58703;48.978;8.982;2023-09-30T03:40:51;13.97;97.85
71047;SHT31;58703;48.978;8.982;2023-09-30T03:43:18;13.91;98.03
71047;SHT31;58703;48.978;8.982;2023-09-30T03:45:44;13.89;97.74
71047;SHT31;58703;48.978;8.982;2023-09-30T03:48:10;13.89;98.04
71047;SHT31;58703;48.978;8.982;2023-09-30T03:50:37;13.83;98.00
71047;SHT31;58703;48.978;8.982;2023-09-30T03:53:04;13.78;98.79
71047;SHT31;58703;48.978;8.982;2023-09-30T03:55:30;13.71;99.26
71047;SHT31;58703;48.978;8.982;2023-09-30T03:57:57;13.71;99.35
71047;SHT31;58703;48.978;8.982;2023-09-30T04:00:23;13.74;99.40
71047;SHT31;58703;48.978;8.982;2023-09-30T04:02:50;13.89;98.87
71047;SHT31;58703;48.978;8.982;2023-09-30T04:05:20;13.99;98.39
71047;SHT31;58703;48.978;8.982;2023-09-30T04:07:52;14.09;98.02
71047;SHT31;58703;48.978;8.982;2023-09-30T04:10:17;14.19;97.52
71047;SHT31;58703;48.978;8.982;2023-09-30T04:12:43;14.22;97.44
71047;SHT31;58703;48.978;8.982;2023-09-30T04:15:09;14.30;97.13
71047;SHT31;58703;48.978;8.982;2023-09-30T04:17:38;14.34;96.78
71047;SHT31;58703;48.978;8.982;2023-09-30T04:20:06;14.36;96.68
71047;SHT31;58703;48.978;8.982;2023-09-30T04:22:34;14.30;96.62
71047;SHT31;58703;48.978;8.982;2023-09-30T04:25:00;14.19;96.72
71047;SHT31;58703;48.978;8.982;2023-09-30T04:27:26;14.05;97.51
71047;SHT31;58703;48.978;8.982;2023-09-30T04:29:52;14.04;97.69
71047;SHT31;58703;48.978;8.982;2023-09-30T04:32:20;13.94;98.06
71047;SHT31;58703;48.978;8.982;2023-09-30T04:34:45;13.83;98.32
71047;SHT31;58703;48.978;8.982;2023-09-30T04:37:15;13.71;98.77
71047;SHT31;58703;48.978;8.982;2023-09-30T04:39:40;13.62;99.04
71047;SHT31;58703;48.978;8.982;2023-09-30T04:42:06;13.57;99.33
71047;SHT31;58703;48.978;8.982;2023-09-30T04:44:36;13.51;99.34
71047;SHT31;58703;48.978;8.982;2023-09-30T04:47:04;13.51;99.62
71047;SHT31;58703;48.978;8.982;2023-09-30T04:49:30;13.48;99.65
71047;SHT31;58703;48.978;8.982;2023-09-30T04:51:56;13.41;99.99
71047;SHT31;58703;48.978;8.982;2023-09-30T04:54:21;13.31;99.85
71047;SHT31;58703;48.978;8.982;2023-09-30T04:56:47;13.24;99.99
71047;SHT31;58703;48.978;8.982;2023-09-30T04:59:13;13.14;99.99
71047;SHT31;58703;48.978;8.982;2023-09-30T05:01:39;13.04;99.99
71047;SHT31;58703;48.978;8.982;2023-09-30T05:04:05;12.87;99.99
71047;SHT31;58703;48.978;8.982;2023-09-30T05:06:31;12.87;99.99
71047;SHT31;58703;48.978;8.982;2023-09-30T05:08:58;12.90;99.99
71047;SHT31;58703;48.978;8.982;2023-09-30T05:11:24;12.80;99.99
71047;SHT31;58703;48.978;8.982;2023-09-30T05:13:49;12.76;99.99
71047;SHT31;58703;48.978;8.982;2023-09-30T05:16:17;12.76;99.99
71047;SHT31;58703;48.978;8.982;2023-09-30T05:18:43;12.70;99.99
71047;SHT31;58703;48.978;8.982;2023-09-30T05:21:09;12.89;99.99
71047;SHT31;58703;48.978;8.982;2023-09-30T05:23:36;13.02;99.99
71047;SHT31;58703;48.978;8.982;2023-09-30T05:26:02;12.96;99.99
71047;SHT31;58703;48.978;8.982;2023-09-30T05:28:27;12.93;99.99
71047;SHT31;58703;48.978;8.982;2023-09-30T05:30:53;12.93;99.99
71047;SHT31;58703;48.978;8.982;2023-09-30T05:33:19;12.93;99.99
71047;SHT31;58703;48.978;8.982;2023-09-30T05:35:44;12.90;99.99
71047;SHT31;58703;48.978;8.982;2023-09-30T05:38:10;12.93;99.99
71047;SHT31;58703;48.978;8.982;2023-09-30T05:40:36;13.00;99.99
71047;SHT31;58703;48.978;8.982;2023-09-30T05:43:01;13.06;99.99
71047;SHT31;58703;48.978;8.982;2023-09-30T05:45:27;13.13;99.99
71047;SHT31;58703;48.978;8.982;2023-09-30T05:47:56;13.19;99.99
71047;SHT31;58703;48.978;8.982;2023-09-30T05:50:23;13.17;99.99
71047;SHT31;58703;48.978;8.982;2023-09-30T05:52:51;13.19;99.99
71047;SHT31;58703;48.978;8.982;2023-09-30T05:55:17;13.11;99.99
71047;SHT31;58703;48.978;8.982;2023-09-30T05:57:49;13.10;99.99
71047;SHT31;58703;48.978;8.982;2023-09-30T06:00:15;13.09;99.99
71047;SHT31;58703;48.978;8.982;2023-09-30T06:02:54;13.13;99.99
71047;SHT31;58703;48.978;8.982;2023-09-30T06:05:19;13.17;99.99
71047;SHT31;58703;48.978;8.982;2023-09-30T06:07:46;13.20;99.99
71047;SHT31;58703;48.978;8.982;2023-09-30T06:10:12;13.31;99.98
71047;SHT31;58703;48.978;8.982;2023-09-30T06:12:41;13.34;99.94
71047;SHT31;58703;48.978;8.982;2023-09-30T06:15:07;13.44;99.89
71047;SHT31;58703;48.978;8.982;2023-09-30T06:17:33;13.43;99.56
71047;SHT31;58703;48.978;8.982;2023-09-30T06:19:59;13.43;99.35
71047;SHT31;58703;48.978;8.982;2023-09-30T06:22:32;13.44;99.40
71047;SHT31;58703;48.978;8.982;2023-09-30T06:24:58;13.44;99.46
71047;SHT31;58703;48.978;8.982;2023-09-30T06:27:23;13.41;99.47
71047;SHT31;58703;48.978;8.982;2023-09-30T06:29:49;13.46;99.52
71047;SHT31;58703;48.978;8.982;2023-09-30T06:32:15;13.47;99.51
71047;SHT31;58703;48.978;8.982;2023-09-30T06:34:40;13.61;99.08
71047;SHT31;58703;48.978;8.982;2023-09-30T06:37:06;13.78;98.49
71047;SHT31;58703;48.978;8.982;2023-09-30T06:39:32;14.02;98.19
71047;SHT31;58703;48.978;8.982;2023-09-30T06:41:57;14.19;97.70
71047;SHT31;58703;48.978;8.982;2023-09-30T06:44:24;14.26;97.04
71047;SHT31;58703;48.978;8.982;2023-09-30T06:46:50;14.55;96.55
71047;SHT31;58703;48.978;8.982;2023-09-30T06:49:16;14.70;95.78
71047;SHT31;58703;48.978;8.982;2023-09-30T06:51:42;14.81;95.71
71047;SHT31;58703;48.978;8.982;2023-09-30T06:54:07;14.90;95.33
71047;SHT31;58703;48.978;8.982;2023-09-30T06:56:33;15.04;94.73
71047;SHT31;58703;48.978;8.982;2023-09-30T06:58:59;15.08;94.16
71047;SHT31;58703;48.978;8.982;2023-09-30T07:01:25;15.18;93.46
71047;SHT31;58703;48.978;8.982;2023-09-30T07:03:50;15.38;93.22
71047;SHT31;58703;48.978;8.982;2023-09-30T07:06:26;15.72;92.42
71047;SHT31;58703;48.978;8.982;2023-09-30T07:08:52;15.92;91.46
71047;SHT31;58703;48.978;8.982;2023-09-30T07:11:27;16.16;90.71
71047;SHT31;58703;48.978;8.982;2023-09-30T07:13:53;16.20;90.58
71047;SHT31;58703;48.978;8.982;2023-09-30T07:16:19;16.27;90.11
71047;SHT31;58703;48.978;8.982;2023-09-30T07:18:44;16.48;89.33
71047;SHT31;58703;48.978;8.982;2023-09-30T07:21:10;16.34;89.35
71047;SHT31;58703;48.978;8.982;2023-09-30T07:23:37;16.40;89.46
71047;SHT31;58703;48.978;8.982;2023-09-30T07:26:02;16.57;88.91
71047;SHT31;58703;48.978;8.982;2023-09-30T07:28:28;16.82;88.06
71047;SHT31;58703;48.978;8.982;2023-09-30T07:30:54;16.88;87.06
71047;SHT31;58703;48.978;8.982;2023-09-30T07:33:20;17.15;86.79
71047;SHT31;58703;48.978;8.982;2023-09-30T07:35:46;17.31;85.42
71047;SHT31;58703;48.978;8.982;2023-09-30T07:38:12;17.49;85.16
71047;SHT31;58703;48.978;8.982;2023-09-30T07:40:37;17.54;83.92
71047;SHT31;58703;48.978;8.982;2023-09-30T07:43:03;17.54;84.10
71047;SHT31;58703;48.978;8.982;2023-09-30T07:45:29;17.53;84.83
71047;SHT31;58703;48.978;8.982;2023-09-30T07:47:54;17.60;84.51
71047;SHT31;58703;48.978;8.982;2023-09-30T07:50:20;17.77;84.42
71047;SHT31;58703;48.978;8.982;2023-09-30T07:52:46;17.91;83.11
71047;SHT31;58703;48.978;8.982;2023-09-30T07:55:11;17.94;82.64
71047;SHT31;58703;48.978;8.982;2023-09-30T07:57:39;17.97;82.14
71047;SHT31;58703;48.978;8.982;2023-09-30T08:00:06;18.61;81.38
71047;SHT31;58703;48.978;8.982;2023-09-30T08:02:35;18.43;81.04
71047;SHT31;58703;48.978;8.982;2023-09-30T08:05:02;18.79;79.91
71047;SHT31;58703;48.978;8.982;2023-09-30T08:07:28;18.99;78.21
71047;SHT31;58703;48.978;8.982;2023-09-30T08:09:53;18.68;78.96
71047;SHT31;58703;48.978;8.982;2023-09-30T08:12:19;19.19;77.11
71047;SHT31;58703;48.978;8.982;2023-09-30T08:14:45;19.49;77.42
71047;SHT31;58703;48.978;8.982;2023-09-30T08:17:10;19.61;76.88
71047;SHT31;58703;48.978;8.982;2023-09-30T08:19:37;19.82;75.88
71047;SHT31;58703;48.978;8.982;2023-09-30T08:22:02;19.07;76.75
71047;SHT31;58703;48.978;8.982;2023-09-30T08:24:29;18.92;77.62
71047;SHT31;58703;48.978;8.982;2023-09-30T08:26:54;19.03;77.37
71047;SHT31;58703;48.978;8.982;2023-09-30T08:29:22;19.49;76.38
71047;SHT31;58703;48.978;8.982;2023-09-30T08:31:47;19.64;75.54
71047;SHT31;58703;48.978;8.982;2023-09-30T08:34:16;19.73;74.52
71047;SHT31;58703;48.978;8.982;2023-09-30T08:36:42;19.46;75.01
71047;SHT31;58703;48.978;8.982;2023-09-30T08:39:08;19.29;74.86
71047;SHT31;58703;48.978;8.982;2023-09-30T08:41:35;19.58;74.07
71047;SHT31;58703;48.978;8.982;2023-09-30T08:44:03;20.02;73.30
71047;SHT31;58703;48.978;8.982;2023-09-30T08:46:35;20.11;72.44
71047;SHT31;58703;48.978;8.982;2023-09-30T08:49:01;19.98;72.92
71047;SHT31;58703;48.978;8.982;2023-09-30T08:51:29;20.59;72.02
71047;SHT31;58703;48.978;8.982;2023-09-30T08:53:55;20.29;70.57
71047;SHT31;58703;48.978;8.982;2023-09-30T08:56:28;20.89;70.42
71047;SHT31;58703;48.978;8.982;2023-09-30T08:58:57;20.65;71.01
71047;SHT31;58703;48.978;8.982;2023-09-30T09:01:28;20.61;70.26
71047;SHT31;58703;48.978;8.982;2023-09-30T09:03:54;20.48;70.61
71047;SHT31;58703;48.978;8.982;2023-09-30T09:06:24;20.33;71.47
71047;SHT31;58703;48.978;8.982;2023-09-30T09:08:50;20.31;70.80
71047;SHT31;58703;48.978;8.982;2023-09-30T09:11:16;20.87;71.78
71047;SHT31;58703;48.978;8.982;2023-09-30T09:13:49;20.82;70.42
71047;SHT31;58703;48.978;8.982;2023-09-30T09:16:17;21.81;68.39
71047;SHT31;58703;48.978;8.982;2023-09-30T09:18:49;22.35;66.59
71047;SHT31;58703;48.978;8.982;2023-09-30T09:21:17;21.98;67.01
71047;SHT31;58703;48.978;8.982;2023-09-30T09:23:50;21.08;68.99
71047;SHT31;58703;48.978;8.982;2023-09-30T09:26:27;20.82;70.49
71047;SHT31;58703;48.978;8.982;2023-09-30T09:29:03;20.87;70.67
71047;SHT31;58703;48.978;8.982;2023-09-30T09:31:36;20.29;72.04
71047;SHT31;58703;48.978;8.982;2023-09-30T09:34:13;21.04;71.73
71047;SHT31;58703;48.978;8.982;2023-09-30T09:36:43;20.84;70.56
71047;SHT31;58703;48.978;8.982;2023-09-30T09:39:10;20.55;70.81
71047;SHT31;58703;48.978;8.982;2023-09-30T09:41:50;19.26;74.56
71047;SHT31;58703;48.978;8.982;2023-09-30T09:44:21;19.46;74.69
71047;SHT31;58703;48.978;8.982;2023-09-30T09:46:48;19.58;74.18
71047;SHT31;58703;48.978;8.982;2023-09-30T09:49:16;19.94;73.17
71047;SHT31;58703;48.978;8.982;2023-09-30T09:51:44;19.75;72.38
71047;SHT31;58703;48.978;8.982;2023-09-30T09:54:11;19.84;73.29
71047;SHT31;58703;48.978;8.982;2023-09-30T09:56:39;20.56;70.83
71047;SHT31;58703;48.978;8.982;2023-09-30T09:59:05;20.41;70.57
71047;SHT31;58703;48.978;8.982;2023-09-30T10:01:34;20.08;71.54
71047;SHT31;58703;48.978;8.982;2023-09-30T10:04:01;21.07;70.73
71047;SHT31;58703;48.978;8.982;2023-09-30T10:06:27;21.14;69.08
71047;SHT31;58703;48.978;8.982;2023-09-30T10:08:54;20.56;71.19
71047;SHT31;58703;48.978;8.982;2023-09-30T10:11:21;20.19;71.95
71047;SHT31;58703;48.978;8.982;2023-09-30T10:13:56;20.36;71.95
71047;SHT31;58703;48.978;8.982;2023-09-30T10:19:14;20.01;72.11
71047;SHT31;58703;48.978;8.982;2023-09-30T10:24:48;21.26;69.37
71047;SHT31;58703;48.978;8.982;2023-09-30T10:27:35;21.89;67.18
71047;SHT31;58703;48.978;8.982;2023-09-30T10:37:43;20.19;69.71
71047;SHT31;58703;48.978;8.982;2023-09-30T10:40:08;20.45;68.56
71047;SHT31;58703;48.978;8.982;2023-09-30T10:42:48;20.83;68.29
71047;SHT31;58703;48.978;8.982;2023-09-30T10:50:51;20.11;69.59
71047;SHT31;58703;48.978;8.982;2023-09-30T10:53:18;20.55;69.60
71047;SHT31;58703;48.978;8.982;2023-09-30T10:55:46;21.04;67.37
71047;SHT31;58703;48.978;8.982;2023-09-30T10:58:14;21.11;67.57
71047;SHT31;58703;48.978;8.982;2023-09-30T11:00:54;21.65;66.95
71047;SHT31;58703;48.978;8.982;2023-09-30T11:03:21;22.57;62.63
71047;SHT31;58703;48.978;8.982;2023-09-30T11:05:50;22.70;62.78
71047;SHT31;58703;48.978;8.982;2023-09-30T11:08:21;21.74;62.33
71047;SHT31;58703;48.978;8.982;2023-09-30T11:10:49;21.27;64.43
71047;SHT31;58703;48.978;8.982;2023-09-30T11:13:17;21.03;64.92
71047;SHT31;58703;48.978;8.982;2023-09-30T11:15:44;21.73;63.39
71047;SHT31;58703;48.978;8.982;2023-09-30T11:18:17;22.71;61.60
71047;SHT31;58703;48.978;8.982;2023-09-30T11:20:44;22.42;60.88
71047;SHT31;58703;48.978;8.982;2023-09-30T11:23:13;23.10;60.67
71047;SHT31;58703;48.978;8.982;2023-09-30T11:25:40;23.35;58.64
71047;SHT31;58703;48.978;8.982;2023-09-30T11:28:18;23.44;57.69
71047;SHT31;58703;48.978;8.982;2023-09-30T11:30:58;23.95;57.81
71047;SHT31;58703;48.978;8.982;2023-09-30T11:33:25;24.71;55.65
71047;SHT31;58703;48.978;8.982;2023-09-30T11:35:57;23.81;55.92
71047;SHT31;58703;48.978;8.982;2023-09-30T11:38:24;23.71;56.32
71047;SHT31;58703;48.978;8.982;2023-09-30T11:40:59;23.72;56.28
71047;SHT31;58703;48.978;8.982;2023-09-30T11:43:33;23.22;58.58
71047;SHT31;58703;48.978;8.982;2023-09-30T11:46:10;22.59;61.39
71047;SHT31;58703;48.978;8.982;2023-09-30T11:48:59;22.42;62.28
71047;SHT31;58703;48.978;8.982;2023-09-30T11:51:26;22.70;61.03
71047;SHT31;58703;48.978;8.982;2023-09-30T11:53:53;22.74;60.11
71047;SHT31;58703;48.978;8.982;2023-09-30T11:56:20;21.85;61.67
71047;SHT31;58703;48.978;8.982;2023-09-30T11:58:48;21.74;62.22
71047;SHT31;58703;48.978;8.982;2023-09-30T12:01:14;21.99;62.33
71047;SHT31;58703;48.978;8.982;2023-09-30T12:03:40;22.20;62.48
71047;SHT31;58703;48.978;8.982;2023-09-30T12:06:06;22.55;61.52
71047;SHT31;58703;48.978;8.982;2023-09-30T12:08:32;22.35;61.25
71047;SHT31;58703;48.978;8.982;2023-09-30T12:10:58;22.02;62.00
71047;SHT31;58703;48.978;8.982;2023-09-30T12:13:25;21.59;62.43
71047;SHT31;58703;48.978;8.982;2023-09-30T12:15:51;21.92;62.50
71047;SHT31;58703;48.978;8.982;2023-09-30T12:18:18;22.47;60.83
71047;SHT31;58703;48.978;8.982;2023-09-30T12:20:51;22.25;60.48
71047;SHT31;58703;48.978;8.982;2023-09-30T12:23:20;22.36;58.57
71047;SHT31;58703;48.978;8.982;2023-09-30T12:25:47;22.10;59.81
71047;SHT31;58703;48.978;8.982;2023-09-30T12:28:13;22.73;59.15
71047;SHT31;58703;48.978;8.982;2023-09-30T12:30:43;22.88;58.12
71047;SHT31;58703;48.978;8.982;2023-09-30T12:33:09;23.32;57.02
71047;SHT31;58703;48.978;8.982;2023-09-30T12:35:35;23.61;56.79
71047;SHT31;58703;48.978;8.982;2023-09-30T12:38:00;23.12;55.99
71047;SHT31;58703;48.978;8.982;2023-09-30T12:40:26;23.54;55.08
71047;SHT31;58703;48.978;8.982;2023-09-30T12:42:52;23.44;56.80
71047;SHT31;58703;48.978;8.982;2023-09-30T12:45:18;23.21;55.29
71047;SHT31;58703;48.978;8.982;2023-09-30T12:47:44;22.74;55.95
71047;SHT31;58703;48.978;8.982;2023-09-30T12:50:11;23.15;55.43
71047;SHT31;58703;48.978;8.982;2023-09-30T12:52:36;22.63;55.99
71047;SHT31;58703;48.978;8.982;2023-09-30T12:55:04;22.52;56.35
71047;SHT31;58703;48.978;8.982;2023-09-30T12:57:31;23.65;53.33
71047;SHT31;58703;48.978;8.982;2023-09-30T12:59:56;23.22;54.61
71047;SHT31;58703;48.978;8.982;2023-09-30T13:02:22;22.50;56.20
71047;SHT31;58703;48.978;8.982;2023-09-30T13:04:48;21.95;56.67
71047;SHT31;58703;48.978;8.982;2023-09-30T13:07:14;22.57;57.11
71047;SHT31;58703;48.978;8.982;2023-09-30T13:09:40;22.71;56.48
71047;SHT31;58703;48.978;8.982;2023-09-30T13:12:06;22.59;57.14
71047;SHT31;58703;48.978;8.982;2023-09-30T13:14:32;22.40;56.14
71047;SHT31;58703;48.978;8.982;2023-09-30T13:16:58;22.55;55.26
71047;SHT31;58703;48.978;8.982;2023-09-30T13:19:23;22.22;55.49
71047;SHT31;58703;48.978;8.982;2023-09-30T13:21:50;22.91;54.13
71047;SHT31;58703;48.978;8.982;2023-09-30T13:24:16;23.37;53.77
71047;SHT31;58703;48.978;8.982;2023-09-30T13:26:42;23.37;52.58
71047;SHT31;58703;48.978;8.982;2023-09-30T13:29:07;24.30;51.70
71047;SHT31;58703;48.978;8.982;2023-09-30T13:31:35;23.47;54.43
71047;SHT31;58703;48.978;8.982;2023-09-30T13:34:04;22.60;57.13
71047;SHT31;58703;48.978;8.982;2023-09-30T13:36:29;23.20;56.11
71047;SHT31;58703;48.978;8.982;2023-09-30T13:38:55;23.96;54.46
71047;SHT31;58703;48.978;8.982;2023-09-30T13:41:21;24.56;53.38
71047;SHT31;58703;48.978;8.982;2023-09-30T13:43:47;24.27;54.44
71047;SHT31;58703;48.978;8.982;2023-09-30T13:46:12;23.51;55.76
71047;SHT31;58703;48.978;8.982;2023-09-30T13:48:38;23.28;56.65
71047;SHT31;58703;48.978;8.982;2023-09-30T13:51:05;22.76;56.61
71047;SHT31;58703;48.978;8.982;2023-09-30T13:53:32;23.12;55.98
71047;SHT31;58703;48.978;8.982;2023-09-30T13:55:57;23.65;56.07
71047;SHT31;58703;48.978;8.982;2023-09-30T13:58:23;23.37;56.78
71047;SHT31;58703;48.978;8.982;2023-09-30T14:00:49;23.25;56.05
71047;SHT31;58703;48.978;8.982;2023-09-30T14:03:18;23.15;56.11
71047;SHT31;58703;48.978;8.982;2023-09-30T14:05:45;22.64;57.22
71047;SHT31;58703;48.978;8.982;2023-09-30T14:08:11;23.07;55.03
71047;SHT31;58703;48.978;8.982;2023-09-30T14:10:37;23.01;55.71
71047;SHT31;58703;48.978;8.982;2023-09-30T14:13:02;23.17;55.43
71047;SHT31;58703;48.978;8.982;2023-09-30T14:15:29;23.08;54.37
71047;SHT31;58703;48.978;8.982;2023-09-30T14:17:59;22.88;54.00
71047;SHT31;58703;48.978;8.982;2023-09-30T14:20:25;22.94;55.50
71047;SHT31;58703;48.978;8.982;2023-09-30T14:22:51;23.29;54.15
71047;SHT31;58703;48.978;8.982;2023-09-30T14:25:18;23.07;55.31
71047;SHT31;58703;48.978;8.982;2023-09-30T14:27:43;23.22;55.83
71047;SHT31;58703;48.978;8.982;2023-09-30T14:30:09;23.81;53.90
71047;SHT31;58703;48.978;8.982;2023-09-30T14:32:35;23.66;53.23
71047;SHT31;58703;48.978;8.982;2023-09-30T14:35:03;23.15;54.37
71047;SHT31;58703;48.978;8.982;2023-09-30T14:37:31;23.49;54.44
71047;SHT31;58703;48.978;8.982;2023-09-30T14:39:57;22.98;55.64
71047;SHT31;58703;48.978;8.982;2023-09-30T14:42:24;22.78;55.69
71047;SHT31;58703;48.978;8.982;2023-09-30T14:44:49;22.81;55.75
71047;SHT31;58703;48.978;8.982;2023-09-30T14:47:15;23.21;54.89
71047;SHT31;58703;48.978;8.982;2023-09-30T14:49:41;23.35;55.07
71047;SHT31;58703;48.978;8.982;2023-09-30T14:52:07;23.27;55.65
71047;SHT31;58703;48.978;8.982;2023-09-30T14:54:35;23.52;54.93
71047;SHT31;58703;48.978;8.982;2023-09-30T14:57:01;23.57;54.78
71047;SHT31;58703;48.978;8.982;2023-09-30T14:59:27;23.01;56.21
71047;SHT31;58703;48.978;8.982;2023-09-30T15:01:53;23.85;55.00
71047;SHT31;58703;48.978;8.982;2023-09-30T15:04:19;22.86;56.69
71047;SHT31;58703;48.978;8.982;2023-09-30T15:06:44;22.33;58.25
71047;SHT31;58703;48.978;8.982;2023-09-30T15:09:11;22.77;57.01
71047;SHT31;58703;48.978;8.982;2023-09-30T15:11:39;23.38;56.01
71047;SHT31;58703;48.978;8.982;2023-09-30T15:14:06;22.63;56.82
71047;SHT31;58703;48.978;8.982;2023-09-30T15:16:32;23.07;55.15
71047;SHT31;58703;48.978;8.982;2023-09-30T15:18:58;22.93;56.08
71047;SHT31;58703;48.978;8.982;2023-09-30T15:21:23;22.97;56.43
71047;SHT31;58703;48.978;8.982;2023-09-30T15:23:52;22.86;56.76
71047;SHT31;58703;48.978;8.982;2023-09-30T15:26:18;23.38;55.11
71047;SHT31;58703;48.978;8.982;2023-09-30T15:28:45;23.37;55.14
71047;SHT31;58703;48.978;8.982;2023-09-30T15:31:10;23.39;55.20
71047;SHT31;58703;48.978;8.982;2023-09-30T15:33:36;23.18;56.15
71047;SHT31;58703;48.978;8.982;2023-09-30T15:36:09;23.57;55.16
71047;SHT31;58703;48.978;8.982;2023-09-30T15:38:35;23.01;55.99
71047;SHT31;58703;48.978;8.982;2023-09-30T15:41:00;23.12;56.58
71047;SHT31;58703;48.978;8.982;2023-09-30T15:43:29;22.73;57.17
71047;SHT31;58703;48.978;8.982;2023-09-30T15:45:55;22.84;57.63
71047;SHT31;58703;48.978;8.982;2023-09-30T15:48:21;23.35;56.32